Fort Yukon, AK

12:42 PM AKST on December 27, 2014 (GMT -0900)
Fort Yukon | Change Station
CLOSE
Current Station
Airport
Location: Fort Yukon,
Elevation: 430 ft
Nearby Weather Stations

Elev 430 ft 66.57 °N, 145.27 °W | Updated 6 minutes ago

Clear
Clear
-2 °F
Feels Like -10 °F
N
4
Wind Variable Wind from West

Today
High -- | Low -- °F
--% Chance of Precip.
Yesterday
High -- | Low -- °F
Precip. -- in
11:30 AM 1:59 PM
Waxing Crescent, 40% visible
Pressure 30.49 in
Visibility 10.0 miles
Clouds Clear
Windchill -10 °F
Dew Point -8 °F
Humidity 78%
Rainfall 0.00 in
Snow Depth Not available.
UV 0 out of 12
Pollen Not available.
Air Quality Not available.
Flu Activity Not available.
METAR PFYU 272136Z 27003KT 10SM CLR M19/M22 A3049 RMK AO1

More Conditions Fewer Conditions

Pressure 30.49 in
Visibility 10.0 miles
Clouds Clear
Windchill -10 °F
Dew Point -8 °F
Humidity 78%
Rainfall 0.00 in
Snow Depth Not available.
UV 0 out of 12
Pollen Not available.
Air Quality Not available.
Flu Activity Not available.
METAR PFYU 272136Z 27003KT 10SM CLR M19/M22 A3049 RMK AO1

More Conditions Fewer Conditions

10-Day Weather Forecast

Almanac

Astronomy

Dec. 27, 2014 Rise Set
Actual Time
Civil Twilight
Nautical Twilight
Astronomical Twilight
Moon
Length of Visible Light
Length of Day
Tomorrow will be .
, % of the Moon is Illuminated

Today's Extremes

State Highs State Lows

Community

WunderPhotos

Upload Photos

1,781,073 photos uploaded!

WunderBlogs® & News

Nearby

Air Quality

  Air Quality AQ Index Pollutant
Not available.

Snow Depth

Station Depth Elevation

Earthquake Activity

City Distance Mag. Time & Date
Minimum magnitude displayed is 2.5.

Coastal Water Temperatures

Place Temperature

Nearby Weather Stations